createdAt,value
2019-01-08T00:02:03.660Z,0.70
2019-01-08T00:04:33.247Z,1.00
2019-01-08T00:07:02.888Z,1.00
2019-01-08T00:09:32.588Z,0.90
2019-01-08T00:12:02.273Z,0.70
2019-01-08T00:14:31.852Z,0.80
2019-01-08T00:17:01.526Z,1.00
2019-01-08T00:19:31.177Z,0.80
2019-01-08T00:22:00.883Z,1.03
2019-01-08T00:24:30.486Z,0.90
2019-01-08T00:27:00.071Z,1.10
2019-01-08T00:29:29.722Z,1.17
2019-01-08T00:31:59.398Z,1.00
2019-01-08T00:34:28.987Z,1.00
2019-01-08T00:36:58.644Z,1.00
2019-01-08T00:39:28.230Z,1.27
2019-01-08T00:41:57.914Z,0.90
2019-01-08T00:44:27.636Z,1.20
2019-01-08T00:46:57.364Z,1.23
2019-01-08T00:49:26.950Z,1.13
2019-01-08T00:51:56.639Z,1.10
2019-01-08T00:54:26.264Z,0.93
2019-01-08T00:56:55.945Z,1.27
2019-01-08T00:59:25.550Z,1.23
2019-01-08T01:01:55.221Z,1.20
2019-01-08T01:04:24.880Z,1.20
2019-01-08T01:07:15.638Z,1.30
2019-01-08T01:09:45.379Z,1.40
2019-01-08T01:12:15.088Z,1.20
2019-01-08T01:14:44.805Z,1.37
2019-01-08T01:17:14.551Z,1.17
2019-01-08T01:19:44.279Z,1.33
2019-01-08T01:22:14.027Z,1.43
2019-01-08T01:24:43.773Z,1.30
2019-01-08T01:27:13.520Z,1.00
2019-01-08T01:29:43.287Z,1.40
2019-01-08T01:32:12.928Z,1.40
2019-01-08T01:34:42.657Z,1.40
2019-01-08T01:37:12.493Z,1.43
2019-01-08T01:39:42.164Z,1.40
2019-01-08T01:42:11.766Z,1.70
2019-01-08T01:44:41.391Z,1.40
2019-01-08T01:47:10.923Z,1.40
2019-01-08T01:49:40.519Z,1.50
2019-01-08T01:52:10.204Z,1.60
2019-01-08T01:54:39.814Z,1.40
2019-01-08T01:57:09.448Z,1.50
2019-01-08T01:59:39.112Z,1.50
2019-01-08T02:02:08.882Z,1.30
2019-01-08T02:04:38.596Z,1.60
2019-01-08T02:07:08.197Z,1.70
2019-01-08T02:09:37.853Z,1.50
2019-01-08T02:12:07.449Z,1.70
2019-01-08T02:14:37.160Z,1.70
2019-01-08T02:17:06.798Z,1.47
2019-01-08T02:19:36.403Z,1.60
2019-01-08T02:22:05.989Z,1.70
2019-01-08T02:24:35.622Z,1.60
2019-01-08T02:27:05.237Z,1.50
2019-01-08T02:29:35.780Z,1.43
2019-01-08T02:32:05.456Z,1.60
2019-01-08T02:34:35.152Z,1.20
2019-01-08T02:37:04.777Z,1.50
2019-01-08T02:39:34.353Z,1.60
2019-01-08T02:42:03.998Z,1.60
2019-01-08T02:44:33.682Z,1.50
2019-01-08T02:47:03.361Z,1.30
2019-01-08T02:49:33.033Z,1.50
2019-01-08T02:52:02.704Z,1.30
2019-01-08T02:54:32.417Z,1.20
2019-01-08T02:57:02.139Z,1.40
2019-01-08T02:59:31.808Z,1.27
2019-01-08T03:02:01.513Z,1.30
2019-01-08T03:04:31.323Z,1.23
2019-01-08T03:07:01.701Z,1.30
2019-01-08T03:09:33.000Z,1.40
2019-01-08T03:12:02.788Z,1.40
2019-01-08T03:14:32.334Z,1.20
2019-01-08T03:17:02.002Z,1.20
2019-01-08T03:19:31.587Z,1.20
2019-01-08T03:22:01.185Z,1.33
2019-01-08T03:24:30.815Z,1.27
2019-01-08T03:27:00.430Z,1.20
2019-01-08T03:29:33.603Z,1.40
2019-01-08T03:32:01.312Z,1.20
2019-01-08T03:34:30.909Z,1.20
2019-01-08T03:37:00.511Z,1.10
2019-01-08T03:39:30.059Z,1.20
2019-01-08T03:41:59.664Z,1.20
2019-01-08T03:44:29.318Z,1.17
2019-01-08T03:46:58.917Z,1.37
2019-01-08T03:49:28.646Z,1.13
2019-01-08T03:51:58.233Z,1.23
2019-01-08T03:54:27.846Z,1.20
2019-01-08T03:56:57.587Z,1.10
2019-01-08T03:59:28.053Z,1.30
2019-01-08T04:01:57.662Z,1.40
2019-01-08T04:04:27.265Z,1.20
2019-01-08T04:06:56.864Z,1.30
2019-01-08T04:09:26.498Z,1.20
2019-01-08T04:11:56.142Z,1.40
2019-01-08T04:14:25.741Z,1.20
2019-01-08T04:16:55.457Z,1.37
2019-01-08T04:19:25.168Z,1.50
2019-01-08T04:21:54.820Z,1.30
2019-01-08T04:24:24.544Z,1.30
2019-01-08T04:26:54.141Z,0.90
2019-01-08T04:29:23.844Z,1.50
2019-01-08T04:31:54.917Z,1.10
2019-01-08T04:34:24.554Z,1.20
2019-01-08T04:36:54.349Z,1.10
2019-01-08T04:39:25.054Z,1.17
2019-01-08T04:41:54.732Z,1.30
2019-01-08T04:44:24.511Z,1.20
2019-01-08T04:46:54.104Z,1.20
2019-01-08T04:49:23.771Z,1.53
2019-01-08T04:51:53.346Z,1.30
2019-01-08T04:54:23.426Z,1.20
2019-01-08T04:56:53.037Z,1.77
2019-01-08T04:59:22.633Z,1.77
2019-01-08T05:01:52.255Z,1.90
2019-01-08T05:04:21.849Z,1.67
2019-01-08T05:06:51.587Z,1.70
2019-01-08T05:09:21.330Z,2.07
2019-01-08T05:11:50.898Z,2.00
2019-01-08T05:14:20.550Z,1.83
2019-01-08T05:16:50.302Z,1.90
2019-01-08T05:19:19.891Z,2.27
2019-01-08T05:21:49.561Z,2.10
2019-01-08T05:24:19.301Z,2.30
2019-01-08T05:26:48.956Z,2.10
2019-01-08T05:29:18.574Z,1.90
2019-01-08T05:31:49.102Z,2.03
2019-01-08T05:34:18.745Z,1.87
2019-01-08T05:36:48.320Z,2.40
2019-01-08T05:39:17.993Z,2.30
2019-01-08T05:41:47.569Z,2.10
2019-01-08T05:44:17.212Z,1.83
2019-01-08T05:46:46.876Z,2.03
2019-01-08T05:49:16.464Z,3.33
2019-01-08T05:51:46.121Z,2.27
2019-01-08T05:54:15.732Z,2.03
2019-01-08T05:56:45.291Z,2.13
2019-01-08T05:59:14.807Z,2.20
2019-01-08T06:01:44.397Z,2.10
2019-01-08T06:04:13.962Z,2.23
2019-01-08T06:06:43.543Z,2.20
2019-01-08T06:09:13.117Z,2.20
2019-01-08T06:11:42.700Z,1.90
2019-01-08T06:14:12.334Z,2.20
2019-01-08T06:16:42.044Z,2.03
2019-01-08T06:19:11.657Z,2.20
2019-01-08T06:21:41.236Z,2.17
2019-01-08T06:24:10.818Z,1.97
2019-01-08T06:26:40.434Z,2.50
2019-01-08T06:29:09.927Z,1.77
2019-01-08T06:31:39.466Z,1.90
2019-01-08T06:34:09.066Z,1.80
2019-01-08T06:36:38.640Z,2.13
2019-01-08T06:39:08.235Z,1.60
2019-01-08T06:41:37.836Z,1.70
2019-01-08T06:44:07.458Z,2.23
2019-01-08T06:46:42.897Z,2.00
2019-01-08T06:49:08.240Z,1.70
2019-01-08T06:51:37.772Z,2.10
2019-01-08T06:54:07.346Z,2.40
2019-01-08T06:56:37.001Z,1.80
2019-01-08T06:59:06.590Z,2.07
2019-01-08T07:01:36.183Z,1.70
2019-01-08T07:04:05.772Z,1.70
2019-01-08T07:06:35.347Z,1.70
2019-01-08T07:09:06.039Z,1.63
2019-01-08T07:11:35.616Z,1.70
2019-01-08T07:14:05.209Z,1.60
2019-01-08T07:16:34.778Z,1.80
2019-01-08T07:19:04.366Z,1.87
2019-01-08T07:21:33.940Z,1.90
2019-01-08T07:24:03.524Z,1.80
2019-01-08T07:26:33.036Z,1.97
2019-01-08T07:29:02.611Z,1.70
2019-01-08T07:31:32.206Z,1.50
2019-01-08T07:34:01.796Z,1.50
2019-01-08T07:36:31.337Z,1.60
2019-01-08T07:39:00.830Z,1.70
2019-01-08T07:41:30.876Z,1.73
2019-01-08T07:44:00.445Z,2.30
2019-01-08T07:46:30.040Z,1.83
2019-01-08T07:48:59.616Z,1.73
2019-01-08T07:51:29.207Z,1.87
2019-01-08T07:53:58.781Z,2.00
2019-01-08T07:56:28.399Z,1.87
2019-01-08T07:58:58.088Z,2.10
2019-01-08T08:01:27.668Z,1.90
2019-01-08T08:03:57.333Z,1.97
2019-01-08T08:06:27.008Z,1.73
2019-01-08T08:08:56.577Z,2.10
2019-01-08T08:11:26.094Z,1.77
2019-01-08T08:13:55.710Z,2.07
2019-01-08T08:16:25.269Z,1.90
2019-01-08T08:18:54.784Z,1.83
2019-01-08T08:21:24.381Z,1.87
2019-01-08T08:23:53.973Z,1.73
2019-01-08T08:26:24.528Z,1.80
2019-01-08T08:28:54.105Z,1.80
2019-01-08T08:31:23.758Z,1.87
2019-01-08T08:33:53.338Z,1.70
2019-01-08T08:36:22.927Z,2.50
2019-01-08T08:38:52.502Z,2.10
2019-01-08T08:41:22.084Z,2.00
2019-01-08T08:43:51.683Z,2.10
2019-01-08T08:46:21.283Z,2.10
2019-01-08T08:48:50.883Z,2.27
2019-01-08T08:51:20.550Z,2.43
2019-01-08T08:53:52.739Z,2.50
2019-01-08T08:56:22.426Z,2.50
2019-01-08T08:58:52.003Z,2.43
2019-01-08T09:01:21.580Z,2.83
2019-01-08T09:03:51.169Z,3.03
2019-01-08T09:06:20.704Z,3.37
2019-01-08T09:08:50.304Z,2.93
2019-01-08T09:11:19.996Z,3.27
2019-01-08T09:13:49.585Z,3.37
2019-01-08T09:16:19.181Z,3.60
2019-01-08T09:18:48.774Z,2.97
2019-01-08T09:21:18.382Z,3.33
2019-01-08T09:23:47.988Z,3.60
2019-01-08T09:26:17.571Z,3.60
2019-01-08T09:28:47.258Z,3.93
2019-01-08T09:31:16.844Z,3.80
2019-01-08T09:33:46.442Z,3.97
2019-01-08T09:36:16.028Z,3.00
2019-01-08T09:38:45.608Z,3.30
2019-01-08T09:41:15.189Z,3.23
2019-01-08T09:43:44.792Z,3.20
2019-01-08T09:46:14.395Z,3.80
2019-01-08T09:48:43.936Z,3.90
2019-01-08T09:51:13.612Z,4.70
2019-01-08T09:53:43.117Z,4.07
2019-01-08T09:56:12.760Z,4.00
2019-01-08T09:58:42.408Z,5.00
2019-01-08T10:01:12.040Z,3.97
2019-01-08T10:03:41.628Z,4.37
2019-01-08T10:06:11.226Z,4.70
2019-01-08T10:08:40.882Z,4.83
2019-01-08T10:11:10.454Z,5.87
2019-01-08T10:13:40.027Z,3.80
2019-01-08T10:16:09.653Z,3.20
2019-01-08T10:18:39.240Z,4.17
2019-01-08T10:21:08.843Z,4.20
2019-01-08T10:23:38.358Z,4.27
2019-01-08T10:26:08.026Z,3.63
2019-01-08T10:28:37.600Z,2.90
2019-01-08T10:31:07.190Z,3.03
2019-01-08T10:33:36.936Z,2.80
2019-01-08T10:36:06.536Z,2.77
2019-01-08T10:38:36.325Z,2.97
2019-01-08T10:41:05.964Z,2.90
2019-01-08T10:43:35.600Z,2.63
2019-01-08T10:46:05.209Z,2.70
2019-01-08T10:48:34.865Z,4.33
2019-01-08T10:51:04.459Z,3.80
2019-01-08T10:53:34.098Z,3.10
2019-01-08T10:56:03.695Z,2.97
2019-01-08T10:58:33.226Z,3.30
2019-01-08T11:01:03.776Z,7.10
2019-01-08T11:03:33.285Z,5.30
2019-01-08T11:06:02.947Z,2.33
2019-01-08T11:08:32.497Z,2.30
2019-01-08T11:11:02.158Z,2.50
2019-01-08T11:13:31.708Z,4.07
2019-01-08T11:16:01.319Z,5.07
2019-01-08T11:18:30.871Z,3.80
2019-01-08T11:21:00.462Z,3.60
2019-01-08T11:23:30.034Z,3.60
2019-01-08T11:25:59.676Z,3.63
2019-01-08T11:28:29.423Z,3.50
2019-01-08T11:30:59.068Z,3.17
2019-01-08T11:33:28.736Z,4.30
2019-01-08T11:35:58.324Z,4.00
2019-01-08T11:38:27.977Z,6.37
2019-01-08T11:40:57.556Z,4.50
2019-01-08T11:43:27.171Z,5.23
2019-01-08T11:45:56.837Z,4.30
2019-01-08T11:48:26.465Z,5.37
2019-01-08T11:50:56.035Z,5.27
2019-01-08T11:53:25.633Z,4.20
2019-01-08T11:55:55.225Z,4.57
2019-01-08T11:58:24.917Z,5.57
2019-01-08T12:00:54.550Z,5.70
2019-01-08T12:03:24.147Z,4.20
2019-01-08T12:05:53.754Z,3.60
2019-01-08T12:08:23.340Z,2.60
2019-01-08T12:10:53.018Z,4.07
2019-01-08T12:13:22.517Z,2.97
2019-01-08T12:15:52.127Z,9.80
2019-01-08T12:18:21.863Z,5.97
2019-01-08T12:20:51.509Z,3.90
2019-01-08T12:23:21.156Z,2.40
2019-01-08T12:25:50.850Z,3.00
2019-01-08T12:28:20.434Z,2.00
2019-01-08T12:30:50.028Z,1.77
2019-01-08T12:33:19.622Z,1.57
2019-01-08T12:35:49.338Z,1.80
2019-01-08T12:38:18.894Z,2.03
2019-01-08T12:40:48.490Z,3.63
2019-01-08T12:43:17.988Z,4.50
2019-01-08T12:45:47.666Z,4.20
2019-01-08T12:48:17.282Z,5.40
2019-01-08T12:50:46.873Z,5.40
2019-01-08T12:53:16.476Z,19.47
2019-01-08T12:55:46.038Z,20.93
2019-01-08T12:58:15.587Z,22.63
2019-01-08T13:00:45.236Z,3.03
2019-01-08T13:03:14.892Z,2.40
2019-01-08T13:05:44.472Z,2.30
2019-01-08T13:08:15.262Z,2.70
2019-01-08T13:10:44.923Z,1.90
2019-01-08T13:13:14.557Z,2.10
2019-01-08T13:15:44.152Z,1.90
2019-01-08T13:18:13.737Z,1.87
2019-01-08T13:20:43.338Z,2.27
2019-01-08T13:23:12.951Z,1.27
2019-01-08T13:25:42.522Z,1.40
2019-01-08T13:28:13.167Z,1.30
2019-01-08T13:30:42.640Z,1.30
2019-01-08T13:33:12.216Z,1.63
2019-01-08T13:35:41.720Z,4.00
2019-01-08T13:38:11.326Z,3.40
2019-01-08T13:40:40.904Z,2.00
2019-01-08T13:43:10.623Z,1.83
2019-01-08T13:45:40.282Z,1.80
2019-01-08T13:48:09.894Z,1.90
2019-01-08T13:50:39.552Z,1.77
2019-01-08T13:53:10.204Z,1.87
2019-01-08T13:55:39.979Z,2.67
2019-01-08T13:58:21.468Z,2.13
2019-01-08T14:00:51.119Z,2.70
2019-01-08T14:03:20.694Z,3.63
2019-01-08T14:05:50.284Z,5.50
2019-01-08T14:08:19.887Z,2.50
2019-01-08T14:10:56.437Z,5.27
2019-01-08T14:13:20.752Z,4.43
2019-01-08T14:15:50.322Z,3.13
2019-01-08T14:18:20.029Z,1.70
2019-01-08T14:20:49.689Z,1.50
2019-01-08T14:23:19.348Z,1.60
2019-01-08T14:25:48.985Z,2.23
2019-01-08T14:28:18.519Z,1.93
2019-01-08T14:30:48.058Z,2.03
2019-01-08T14:33:17.639Z,2.43
2019-01-08T14:35:47.215Z,2.00
2019-01-08T14:38:16.789Z,1.70
2019-01-08T14:40:46.386Z,1.90
2019-01-08T14:43:16.034Z,1.20
2019-01-08T14:45:45.640Z,1.50
2019-01-08T14:48:15.160Z,1.30
2019-01-08T14:50:44.917Z,1.50
2019-01-08T14:53:14.503Z,1.33
2019-01-08T14:55:44.138Z,1.63
2019-01-08T14:58:13.748Z,1.77
2019-01-08T15:00:43.346Z,1.80
2019-01-08T15:05:44.143Z,2.10
2019-01-08T15:08:13.737Z,1.87
2019-01-08T15:10:43.242Z,2.20
2019-01-08T15:13:12.912Z,2.27
2019-01-08T15:15:42.580Z,2.20
2019-01-08T15:18:12.165Z,1.60
2019-01-08T15:20:41.769Z,1.73
2019-01-08T15:23:11.270Z,1.90
2019-01-08T15:25:40.940Z,2.00
2019-01-08T15:28:10.531Z,2.13
2019-01-08T15:30:40.195Z,2.23
2019-01-08T15:33:10.796Z,2.10
2019-01-08T15:35:40.375Z,2.00
2019-01-08T15:38:09.953Z,1.90
2019-01-08T15:40:39.593Z,1.87
2019-01-08T15:43:09.093Z,1.73
2019-01-08T15:45:38.681Z,1.80
2019-01-08T15:48:08.264Z,2.23
2019-01-08T15:50:37.921Z,1.80
2019-01-08T15:53:07.512Z,1.80
2019-01-08T15:55:37.199Z,2.00
2019-01-08T15:58:06.859Z,2.20
2019-01-08T16:00:36.446Z,2.07
2019-01-08T16:03:07.452Z,1.87
2019-01-08T16:05:37.357Z,1.60
2019-01-08T16:08:07.158Z,1.80
2019-01-08T16:10:36.766Z,1.90
2019-01-08T16:13:06.520Z,1.70
2019-01-08T16:15:36.090Z,1.40
2019-01-08T16:18:05.689Z,1.60
2019-01-08T16:20:35.388Z,1.40
2019-01-08T16:23:05.037Z,1.63
2019-01-08T16:25:34.800Z,1.40
2019-01-08T16:28:04.790Z,1.50
2019-01-08T16:30:34.455Z,1.60
2019-01-08T16:33:04.117Z,1.20
2019-01-08T16:35:33.807Z,1.47
2019-01-08T16:38:03.414Z,1.37
2019-01-08T16:40:34.054Z,1.40
2019-01-08T16:43:03.737Z,1.20
2019-01-08T16:45:33.374Z,1.30
2019-01-08T16:48:02.917Z,1.40
2019-01-08T16:50:32.515Z,1.40
2019-01-08T16:53:02.174Z,1.73
2019-01-08T16:55:31.802Z,1.77
2019-01-08T16:58:01.445Z,2.93
2019-01-08T17:00:31.038Z,2.67
2019-01-08T17:03:00.642Z,8.10
2019-01-08T17:05:30.223Z,3.10
2019-01-08T17:07:59.824Z,7.47
2019-01-08T17:10:29.472Z,4.70
2019-01-08T17:12:59.137Z,3.10
2019-01-08T17:15:28.756Z,4.37
2019-01-08T17:17:59.435Z,3.40
2019-01-08T17:20:29.117Z,4.20
2019-01-08T17:22:58.806Z,39.17
2019-01-08T17:25:28.428Z,34.17
2019-01-08T17:27:58.088Z,10.83
2019-01-08T17:30:27.707Z,13.00
2019-01-08T17:32:57.312Z,5.93
2019-01-08T17:35:26.919Z,3.67
2019-01-08T17:37:56.542Z,5.10
2019-01-08T17:40:26.248Z,4.40
2019-01-08T17:42:56.925Z,5.27
2019-01-08T17:45:26.511Z,6.13
2019-01-08T17:47:56.098Z,2.63
2019-01-08T17:50:25.688Z,4.60
2019-01-08T17:52:56.444Z,2.17
2019-01-08T17:55:26.042Z,2.10
2019-01-08T17:58:31.812Z,2.10
2019-01-08T18:01:04.997Z,1.70
2019-01-08T18:03:53.949Z,3.13
2019-01-08T18:06:24.709Z,2.33
2019-01-08T18:08:54.364Z,7.87
2019-01-08T18:11:23.972Z,7.57
2019-01-08T18:13:53.635Z,5.47
2019-01-08T18:16:23.255Z,13.93
2019-01-08T18:18:53.000Z,7.73
2019-01-08T18:21:22.615Z,4.40
2019-01-08T18:23:52.290Z,11.63
2019-01-08T18:26:21.930Z,6.53
2019-01-08T18:28:51.533Z,5.93
2019-01-08T18:31:21.128Z,2.40
2019-01-08T18:33:51.809Z,5.20
2019-01-08T18:36:21.500Z,8.07
2019-01-08T18:38:51.249Z,9.80
2019-01-08T18:41:20.942Z,1.87
2019-01-08T18:43:50.710Z,2.80
2019-01-08T18:46:20.323Z,2.17
2019-01-08T18:48:49.964Z,1.50
2019-01-08T18:51:19.618Z,1.10
2019-01-08T18:53:49.237Z,1.30
2019-01-08T18:56:18.834Z,0.80
2019-01-08T18:58:48.483Z,1.00
2019-01-08T19:01:18.159Z,1.00
2019-01-08T19:03:47.778Z,1.00
2019-01-08T19:06:17.385Z,0.70
2019-01-08T19:09:06.949Z,0.80
2019-01-08T19:11:36.601Z,0.90
2019-01-08T19:14:07.226Z,0.93
2019-01-08T19:16:36.856Z,0.80
2019-01-08T19:19:06.437Z,0.80
2019-01-08T19:21:36.117Z,0.80
2019-01-08T19:24:05.752Z,1.17
2019-01-08T19:26:35.460Z,14.00
2019-01-08T19:29:05.117Z,5.97
2019-01-08T19:31:34.733Z,5.27
2019-01-08T19:34:09.032Z,6.87
2019-01-08T19:36:35.648Z,3.30
2019-01-08T19:39:07.154Z,2.80
2019-01-08T19:41:56.082Z,4.10
2019-01-08T19:44:25.753Z,2.57
2019-01-08T19:46:55.482Z,2.37
2019-01-08T19:49:25.151Z,7.73
2019-01-08T19:51:54.826Z,50.40
2019-01-08T19:54:24.452Z,37.83
2019-01-08T19:56:54.067Z,2.87
2019-01-08T19:59:23.736Z,3.83
2019-01-08T20:01:53.328Z,3.30
2019-01-08T20:04:23.012Z,1.40
2019-01-08T20:06:52.673Z,1.20
2019-01-08T20:09:25.551Z,1.03
2019-01-08T20:11:53.466Z,2.27
2019-01-08T20:14:23.131Z,1.00
2019-01-08T20:16:53.921Z,1.57
2019-01-08T20:19:23.571Z,1.23
2019-01-08T20:21:53.171Z,1.27
2019-01-08T20:24:22.879Z,1.10
2019-01-08T20:26:52.587Z,1.30
2019-01-08T20:29:22.225Z,1.00
2019-01-08T20:31:51.839Z,3.77
2019-01-08T20:34:26.564Z,3.77
2019-01-08T20:36:52.758Z,1.60
2019-01-08T20:39:22.419Z,1.60
2019-01-08T20:41:52.046Z,2.73
2019-01-08T20:44:21.618Z,1.33
2019-01-08T20:46:51.199Z,1.70
2019-01-08T20:49:20.928Z,2.80
2019-01-08T20:51:50.525Z,2.17
2019-01-08T20:54:20.195Z,2.00
2019-01-08T20:56:49.832Z,1.80
2019-01-08T20:59:19.544Z,2.00
2019-01-08T21:01:49.220Z,1.63
2019-01-08T21:04:18.885Z,1.80
2019-01-08T21:06:48.400Z,1.90
2019-01-08T21:09:18.009Z,1.20
2019-01-08T21:11:47.622Z,1.23
2019-01-08T21:14:17.186Z,1.20
2019-01-08T21:16:48.096Z,0.70
2019-01-08T21:19:17.868Z,0.80
2019-01-08T21:21:48.813Z,6.23
2019-01-08T21:24:18.464Z,3.63
2019-01-08T21:26:48.088Z,3.30
2019-01-08T21:29:18.382Z,1.93
2019-01-08T21:31:48.158Z,2.00
2019-01-08T21:34:17.951Z,1.93
2019-01-08T21:36:47.560Z,1.30
2019-01-08T21:39:23.368Z,3.23
2019-01-08T21:41:53.121Z,1.70
2019-01-08T21:44:23.067Z,1.33
2019-01-08T21:46:52.663Z,1.10
2019-01-08T21:49:22.266Z,1.20
2019-01-08T21:51:53.081Z,1.17
2019-01-08T21:54:22.808Z,1.40
2019-01-08T21:56:52.434Z,1.30
2019-01-08T21:59:22.096Z,1.30
2019-01-08T22:01:51.760Z,1.10
2019-01-08T22:04:21.346Z,1.10
2019-01-08T22:06:51.081Z,1.20
2019-01-08T22:09:20.804Z,1.10
2019-01-08T22:11:50.545Z,1.03
2019-01-08T22:14:21.192Z,1.10
2019-01-08T22:16:50.882Z,1.03
2019-01-08T22:19:20.588Z,4.77
2019-01-08T22:21:50.341Z,6.30
2019-01-08T22:24:19.934Z,12.77
2019-01-08T22:26:49.561Z,12.63
2019-01-08T22:29:19.141Z,2.23
2019-01-08T22:31:48.986Z,2.40
2019-01-08T22:34:18.626Z,3.63
2019-01-08T22:36:48.227Z,7.20
2019-01-08T22:39:17.841Z,2.83
2019-01-08T22:41:47.423Z,2.80
2019-01-08T22:44:17.011Z,1.90
2019-01-08T22:46:47.227Z,1.50
2019-01-08T22:49:16.884Z,1.80
2019-01-08T22:51:46.552Z,3.40
2019-01-08T22:54:17.333Z,2.93
2019-01-08T22:56:46.898Z,3.87
2019-01-08T22:59:16.504Z,4.33
2019-01-08T23:01:46.324Z,1.70
2019-01-08T23:04:16.497Z,5.27
2019-01-08T23:06:46.094Z,3.90
2019-01-08T23:09:16.154Z,11.23
2019-01-08T23:11:45.850Z,6.07
2019-01-08T23:14:16.481Z,1.40
2019-01-08T23:16:46.132Z,3.60
2019-01-08T23:19:15.751Z,2.57
2019-01-08T23:21:45.458Z,2.97
2019-01-08T23:24:15.155Z,2.63
2019-01-08T23:26:44.714Z,2.20
2019-01-08T23:29:14.363Z,1.20
2019-01-08T23:31:43.976Z,0.93
2019-01-08T23:34:13.566Z,1.03
2019-01-08T23:36:43.166Z,1.20
2019-01-08T23:39:12.753Z,1.30
2019-01-08T23:41:42.327Z,0.93
2019-01-08T23:44:11.926Z,1.17
2019-01-08T23:46:41.664Z,1.10
2019-01-08T23:49:11.374Z,1.20
2019-01-08T23:51:40.993Z,1.30
2019-01-08T23:54:11.095Z,1.27
2019-01-08T23:56:40.709Z,1.20
2019-01-08T23:59:10.478Z,1.10
